Terminal Aerodrome Forecast
Issued by NWS

Home | Current Version | Previous Version | Text Only | Print | Product List | Glossary On
Versions: 1 2 3 4 5 6 7 8 9 10 11 12 13 14 15 16
689
FTUS44 KTSA 231124
TAFBVO
TAF
KBVO 231124Z 2312/2412 16003KT 3SM BR SKC
      TEMPO 2312/2314 3/4SM BR OVC002
     FM231400 16005KT P6SM SCT035 SCT150
     FM231700 15008KT P6SM VCTS SCT040CB BKN150
     FM232300 16003KT P6SM BKN250=

USA.gov is the U.S. government's official web portal to all federal, state and local government web resources and services.